Time;durP1;ratioP1;P1;durP2;ratioP2;P2;SDS_P1;SDS_P2;PMS_P1;PMS_P2;Temp;Humidity;BMP_temperature;BMP_pressure;BME280_temperature;BME280_humidity;BME280_pressure;Samples;Min_cycle;Max_cycle;Signal;HPM_P1;HPM_P2
2024/03/09 00:00:16;;;;;;;2.75;1.52;;;21.20;49.90;;;;;;5079784;28;20420;-65
2024/03/09 00:02:47;;;;;;;3.30;1.55;;;21.20;50.00;;;;;;5081103;28;20044;-65
2024/03/09 00:05:14;;;;;;;2.40;1.50;;;21.20;49.90;;;;;;5079570;28;20125;-65
2024/03/09 00:07:40;;;;;;;2.10;1.45;;;21.20;50.00;;;;;;5079470;28;20029;-65
2024/03/09 00:10:06;;;;;;;2.65;1.50;;;21.20;50.00;;;;;;5079682;28;20488;-65
2024/03/09 00:12:33;;;;;;;2.38;1.40;;;21.10;49.90;;;;;;5078264;28;20020;-65
2024/03/09 00:15:02;;;;;;;2.10;1.40;;;21.10;50.00;;;;;;5061260;28;20111;-65
2024/03/09 00:17:29;;;;;;;1.80;1.30;;;21.10;50.00;;;;;;5081466;28;20100;-65
2024/03/09 00:19:58;;;;;;;2.15;1.40;;;21.10;50.50;;;;;;5080579;28;20036;-65
2024/03/09 00:22:29;;;;;;;2.08;1.50;;;21.10;50.00;;;;;;5079987;28;20021;-65
2024/03/09 00:24:55;;;;;;;2.60;1.60;;;21.00;50.00;;;;;;5076633;28;20040;-65
2024/03/09 00:27:24;;;;;;;1.90;1.30;;;21.10;50.50;;;;;;5079213;28;20024;-65
2024/03/09 00:29:55;;;;;;;1.85;1.30;;;21.10;50.00;;;;;;5079150;28;20538;-65
2024/03/09 00:32:26;;;;;;;2.42;1.50;;;21.00;50.00;;;;;;5079177;28;20032;-64
2024/03/09 00:34:53;;;;;;;2.20;1.40;;;21.00;50.00;;;;;;5079838;28;20031;-64
2024/03/09 00:37:18;;;;;;;2.22;1.45;;;21.00;50.00;;;;;;5078970;28;20368;-64
2024/03/09 00:39:44;;;;;;;1.73;1.23;;;21.00;50.00;;;;;;5077577;28;20033;-64
2024/03/09 00:42:14;;;;;;;2.33;1.60;;;21.00;50.00;;;;;;5077011;28;20480;-63
2024/03/09 00:44:41;;;;;;;2.22;1.42;;;21.00;50.00;;;;;;5076120;28;20027;-64
2024/03/09 00:47:07;;;;;;;1.70;1.23;;;20.90;50.00;;;;;;5079096;28;20522;-64
2024/03/09 00:49:34;;;;;;;2.33;1.45;;;21.00;50.10;;;;;;5081571;28;20028;-63
2024/03/09 00:52:00;;;;;;;1.90;1.35;;;20.90;50.10;;;;;;5078275;28;20024;-64
2024/03/09 00:54:26;;;;;;;2.42;1.50;;;20.90;50.10;;;;;;5078126;28;20062;-64
2024/03/09 00:56:52;;;;;;;2.40;1.55;;;20.90;50.10;;;;;;5079175;28;20337;-64
2024/03/09 00:59:19;;;;;;;1.88;1.40;;;20.90;50.10;;;;;;5077285;28;20472;-64
2024/03/09 01:01:44;;;;;;;1.98;1.35;;;20.90;50.10;;;;;;5079572;28;20029;-66
2024/03/09 01:04:10;;;;;;;2.78;1.40;;;20.90;50.10;;;;;;5078324;28;20034;-66
2024/03/09 01:06:39;;;;;;;2.30;1.65;;;20.90;50.20;;;;;;5077532;28;20028;-66
2024/03/09 01:09:05;;;;;;;2.35;1.67;;;20.90;50.10;;;;;;5062994;28;20510;-66
2024/03/09 01:11:31;;;;;;;2.22;1.40;;;20.80;50.10;;;;;;5078146;28;20063;-66
2024/03/09 01:13:56;;;;;;;2.08;1.40;;;20.80;50.20;;;;;;5076264;28;20055;-66
2024/03/09 01:16:22;;;;;;;2.42;1.42;;;20.80;50.10;;;;;;5078348;28;20032;-65
2024/03/09 01:18:49;;;;;;;1.80;1.38;;;20.80;50.10;;;;;;5078317;28;20055;-66
2024/03/09 01:21:15;;;;;;;2.22;1.50;;;20.80;50.20;;;;;;5080533;28;20024;-66
2024/03/09 01:23:41;;;;;;;2.10;1.52;;;20.80;50.20;;;;;;5079514;28;20456;-66
2024/03/09 01:26:09;;;;;;;1.95;1.60;;;20.70;50.10;;;;;;5078565;28;20033;-65
2024/03/09 01:28:36;;;;;;;2.28;1.50;;;20.70;50.20;;;;;;5076224;28;20031;-66
2024/03/09 01:31:04;;;;;;;1.85;1.30;;;20.70;50.10;;;;;;5078480;28;20060;-66
2024/03/09 01:33:31;;;;;;;2.10;1.40;;;20.70;50.20;;;;;;5079235;28;20032;-66
2024/03/09 01:35:58;;;;;;;1.65;1.30;;;20.70;50.20;;;;;;5077497;28;20036;-65
2024/03/09 01:38:23;;;;;;;2.10;1.30;;;20.70;50.20;;;;;;5060278;28;20131;-66
2024/03/09 01:40:49;;;;;;;2.05;1.40;;;20.70;50.20;;;;;;5078491;28;20035;-63
2024/03/09 01:43:18;;;;;;;2.13;1.52;;;20.70;50.20;;;;;;5078294;28;20036;-62
2024/03/09 01:45:46;;;;;;;2.55;1.70;;;20.70;50.20;;;;;;5077734;28;20507;-62
2024/03/09 01:48:21;;;;;;;2.05;1.35;;;20.70;50.20;;;;;;5077285;28;20603;-63
2024/03/09 01:50:47;;;;;;;2.10;1.30;;;20.70;50.20;;;;;;5077832;28;20090;-62
2024/03/09 01:53:14;;;;;;;1.75;1.38;;;20.70;50.20;;;;;;5078099;28;20021;-63
2024/03/09 01:55:41;;;;;;;2.55;1.48;;;20.70;50.20;;;;;;5077097;28;20043;-62
2024/03/09 01:58:08;;;;;;;2.05;1.40;;;20.60;50.20;;;;;;5077609;28;20021;-65
2024/03/09 02:00:35;;;;;;;2.17;1.60;;;20.60;50.20;;;;;;5076112;28;20106;-63
2024/03/09 02:03:08;;;;;;;1.92;1.40;;;20.60;50.30;;;;;;5077949;28;20051;-65
2024/03/09 02:05:36;;;;;;;2.45;1.70;;;20.60;50.20;;;;;;5076854;28;20024;-65
2024/03/09 02:08:05;;;;;;;1.75;1.30;;;20.60;50.20;;;;;;5076903;28;20457;-65
2024/03/09 02:10:31;;;;;;;2.50;1.60;;;20.60;50.20;;;;;;5076820;28;20029;-65
2024/03/09 02:12:57;;;;;;;2.20;1.40;;;20.60;50.30;;;;;;5075916;28;20044;-63
2024/03/09 02:15:29;;;;;;;2.05;1.48;;;20.60;50.20;;;;;;5075171;28;20024;-63
2024/03/09 02:17:56;;;;;;;2.78;1.48;;;20.60;50.30;;;;;;5078200;28;20093;-62
2024/03/09 02:20:25;;;;;;;2.10;1.52;;;20.60;50.30;;;;;;5079616;28;20082;-62
2024/03/09 02:22:54;;;;;;;2.08;1.55;;;20.50;50.20;;;;;;5076399;28;20099;-62
2024/03/09 02:25:21;;;;;;;1.98;1.55;;;20.50;50.30;;;;;;5063412;28;20500;-62
2024/03/09 02:27:47;;;;;;;1.90;1.40;;;20.50;50.30;;;;;;5073702;28;20036;-62
2024/03/09 02:30:13;;;;;;;2.20;1.40;;;20.50;50.30;;;;;;5076242;28;20031;-62
2024/03/09 02:32:39;;;;;;;1.73;1.35;;;20.50;50.30;;;;;;5076310;28;20028;-63
2024/03/09 02:35:06;;;;;;;2.53;1.50;;;20.50;50.30;;;;;;5078503;28;20028;-62
2024/03/09 02:37:32;;;;;;;1.98;1.38;;;20.50;50.30;;;;;;5075553;28;20035;-63
2024/03/09 02:39:57;;;;;;;1.80;1.30;;;20.50;50.30;;;;;;5077554;28;20028;-63
2024/03/09 02:42:23;;;;;;;1.85;1.33;;;20.50;50.30;;;;;;5078121;28;20610;-64
2024/03/09 02:44:49;;;;;;;1.50;1.30;;;20.50;50.40;;;;;;5075491;28;20040;-62
2024/03/09 02:47:15;;;;;;;2.13;1.50;;;20.50;50.30;;;;;;5079697;28;20044;-63
2024/03/09 02:49:41;;;;;;;2.38;1.75;;;20.50;50.40;;;;;;5084164;28;20066;-62
2024/03/09 02:52:08;;;;;;;2.00;1.48;;;20.50;50.30;;;;;;5081688;28;20024;-64
2024/03/09 02:54:34;;;;;;;2.20;1.55;;;20.40;50.30;;;;;;5081794;28;20130;-64
2024/03/09 02:57:00;;;;;;;1.83;1.33;;;20.40;50.30;;;;;;5082344;28;20505;-65
2024/03/09 02:59:28;;;;;;;2.08;1.45;;;20.40;50.30;;;;;;5080981;28;20473;-64
2024/03/09 03:01:54;;;;;;;1.77;1.30;;;20.40;50.30;;;;;;5078444;28;20070;-64
2024/03/09 03:04:20;;;;;;;2.10;1.38;;;20.40;50.30;;;;;;5082957;28;20031;-64
2024/03/09 03:06:45;;;;;;;1.80;1.30;;;20.40;50.30;;;;;;5081066;28;20123;-64
2024/03/09 03:09:11;;;;;;;2.22;1.38;;;20.40;50.90;;;;;;5082269;28;20112;-64
2024/03/09 03:11:40;;;;;;;2.40;1.67;;;20.40;50.40;;;;;;5081880;28;20039;-62
2024/03/09 03:14:05;;;;;;;2.10;1.30;;;20.40;50.40;;;;;;5079774;28;20075;-63
2024/03/09 03:16:37;;;;;;;2.00;1.50;;;20.40;50.40;;;;;;5081919;28;20016;-62
2024/03/09 03:19:07;;;;;;;1.75;1.40;;;20.40;50.40;;;;;;5080515;28;20460;-62
2024/03/09 03:21:39;;;;;;;1.92;1.45;;;20.40;50.50;;;;;;5063342;28;20028;-64
2024/03/09 03:24:06;;;;;;;2.25;1.40;;;20.40;50.40;;;;;;5080142;28;20024;-64
2024/03/09 03:26:32;;;;;;;1.88;1.33;;;20.30;50.40;;;;;;5081218;28;20032;-64
2024/03/09 03:29:01;;;;;;;2.08;1.40;;;20.30;50.40;;;;;;5077583;28;20484;-64
2024/03/09 03:31:28;;;;;;;1.77;1.38;;;20.30;51.00;;;;;;5063304;28;20060;-64
2024/03/09 03:33:54;;;;;;;2.38;1.60;;;20.30;50.40;;;;;;5079538;28;20032;-65
2024/03/09 03:36:22;;;;;;;2.00;1.30;;;20.30;50.50;;;;;;5081709;28;20050;-64
2024/03/09 03:38:49;;;;;;;1.80;1.30;;;20.30;50.50;;;;;;5061628;28;20028;-64
2024/03/09 03:41:18;;;;;;;1.65;1.20;;;20.30;50.50;;;;;;5081109;28;20024;-64
2024/03/09 03:43:44;;;;;;;2.30;1.60;;;20.30;50.50;;;;;;5080182;28;20403;-64
2024/03/09 03:46:12;;;;;;;1.60;1.30;;;20.30;50.50;;;;;;5078352;28;20032;-63
2024/03/09 03:48:44;;;;;;;2.17;1.33;;;20.30;50.50;;;;;;5080341;28;20028;-64
2024/03/09 03:51:12;;;;;;;1.65;1.13;;;20.30;50.50;;;;;;5081253;28;20028;-64
2024/03/09 03:53:38;;;;;;;1.70;1.20;;;20.30;50.60;;;;;;5082639;28;20476;-64
2024/03/09 03:56:04;;;;;;;1.95;1.30;;;20.30;50.60;;;;;;5077485;28;20483;-63
2024/03/09 03:58:30;;;;;;;1.65;1.20;;;20.30;50.60;;;;;;5078290;28;20028;-64
2024/03/09 04:00:56;;;;;;;1.63;1.17;;;20.20;50.60;;;;;;5079152;28;20054;-64
2024/03/09 04:03:22;;;;;;;1.38;1.20;;;20.20;50.60;;;;;;5079923;28;20464;-63
2024/03/09 04:05:49;;;;;;;1.83;1.30;;;20.20;50.60;;;;;;5080032;28;20484;-63
2024/03/09 04:08:17;;;;;;;1.80;1.20;;;20.20;50.60;;;;;;5078636;28;20029;-62
2024/03/09 04:10:43;;;;;;;1.95;1.35;;;20.20;50.60;;;;;;5079088;28;20036;-63
2024/03/09 04:13:13;;;;;;;1.58;1.20;;;20.20;50.60;;;;;;5065193;28;20113;-63
2024/03/09 04:15:44;;;;;;;1.88;1.27;;;20.20;50.60;;;;;;5080073;28;20056;-63
2024/03/09 04:18:13;;;;;;;1.55;1.20;;;20.20;50.60;;;;;;5080224;28;20163;-63
2024/03/09 04:20:40;;;;;;;1.90;1.30;;;20.20;50.60;;;;;;5080822;28;20031;-63
2024/03/09 04:23:15;;;;;;;2.00;1.30;;;20.20;50.60;;;;;;5081283;28;20400;-66
2024/03/09 04:25:42;;;;;;;2.03;1.45;;;20.20;51.20;;;;;;5079911;28;20066;-65
2024/03/09 04:28:12;;;;;;;1.98;1.30;;;20.20;50.70;;;;;;5081708;28;20043;-66
2024/03/09 04:30:38;;;;;;;1.75;1.30;;;20.20;50.60;;;;;;5076245;28;20106;-65
2024/03/09 04:33:06;;;;;;;1.75;1.30;;;20.20;50.70;;;;;;5094677;28;20051;-65
2024/03/09 04:35:33;;;;;;;2.03;1.30;;;20.20;50.70;;;;;;5080868;28;20023;-65
2024/03/09 04:37:59;;;;;;;2.00;1.38;;;20.10;50.70;;;;;;5080890;28;20532;-65
2024/03/09 04:40:27;;;;;;;1.75;1.30;;;20.20;50.70;;;;;;5082951;28;20167;-65
2024/03/09 04:42:53;;;;;;;1.60;1.30;;;20.10;50.70;;;;;;5078221;28;20031;-65
2024/03/09 04:45:25;;;;;;;1.55;1.17;;;20.10;50.70;;;;;;5079493;28;20017;-65
2024/03/09 04:47:51;;;;;;;1.75;1.25;;;20.10;50.70;;;;;;5080787;28;20127;-65
2024/03/09 04:50:24;;;;;;;1.40;1.10;;;20.10;50.70;;;;;;5079776;28;20028;-65
2024/03/09 04:52:50;;;;;;;1.67;1.20;;;20.10;50.70;;;;;;5079788;28;20021;-65
2024/03/09 04:55:17;;;;;;;1.88;1.23;;;20.10;51.20;;;;;;5080076;28;20031;-65
2024/03/09 04:57:45;;;;;;;1.85;1.30;;;20.10;50.70;;;;;;5079863;28;20055;-65
2024/03/09 05:00:16;;;;;;;2.33;1.33;;;20.10;50.80;;;;;;5067890;28;20120;-65
2024/03/09 05:02:47;;;;;;;1.63;1.30;;;20.10;50.80;;;;;;5095690;28;20035;-65
2024/03/09 05:05:13;;;;;;;1.48;1.13;;;20.10;50.80;;;;;;5080186;28;20039;-65
2024/03/09 05:07:43;;;;;;;1.88;1.40;;;20.10;50.80;;;;;;5079278;28;20095;-65
2024/03/09 05:10:10;;;;;;;1.77;1.30;;;20.10;50.90;;;;;;5077901;28;20082;-64
2024/03/09 05:12:37;;;;;;;1.58;1.13;;;20.10;50.80;;;;;;5059672;28;20028;-64
2024/03/09 05:15:03;;;;;;;1.98;1.25;;;20.10;50.80;;;;;;5077224;28;20607;-64
2024/03/09 05:17:28;;;;;;;1.80;1.30;;;20.10;50.90;;;;;;5079541;28;20107;-64
2024/03/09 05:19:54;;;;;;;1.70;1.33;;;20.10;50.90;;;;;;5077682;28;20575;-64
2024/03/09 05:22:20;;;;;;;1.67;1.20;;;20.10;50.90;;;;;;5079075;28;20016;-64
2024/03/09 05:24:46;;;;;;;2.53;1.40;;;20.10;50.90;;;;;;5079606;28;20099;-64
2024/03/09 05:27:11;;;;;;;1.77;1.20;;;20.00;50.90;;;;;;5079510;28;20476;-63
2024/03/09 05:29:37;;;;;;;1.58;1.20;;;20.10;51.00;;;;;;5077712;28;20062;-64
2024/03/09 05:32:03;;;;;;;1.95;1.40;;;20.00;50.90;;;;;;5075496;28;20031;-65
2024/03/09 05:34:28;;;;;;;1.73;1.30;;;20.00;51.40;;;;;;5078491;28;21040;-66
2024/03/09 05:36:55;;;;;;;1.73;1.20;;;20.10;51.00;;;;;;5063986;28;20039;-65
2024/03/09 05:39:21;;;;;;;1.65;1.25;;;20.00;50.90;;;;;;5093886;28;20020;-65
2024/03/09 05:41:49;;;;;;;1.88;1.30;;;20.00;50.90;;;;;;5080052;28;20029;-65
2024/03/09 05:44:15;;;;;;;1.45;1.15;;;20.00;50.90;;;;;;5079559;28;20055;-63
2024/03/09 05:46:41;;;;;;;1.80;1.27;;;20.00;51.00;;;;;;5077476;28;20491;-64
2024/03/09 05:49:08;;;;;;;1.80;1.20;;;20.00;51.00;;;;;;5078907;28;20118;-64
2024/03/09 05:51:33;;;;;;;1.52;1.20;;;20.00;51.00;;;;;;5079617;28;20480;-64
2024/03/09 05:53:59;;;;;;;1.77;1.20;;;20.00;51.00;;;;;;5078636;28;20031;-64
2024/03/09 05:56:25;;;;;;;1.50;1.20;;;20.00;51.00;;;;;;5079515;28;20095;-64
2024/03/09 05:58:50;;;;;;;1.73;1.17;;;20.00;51.00;;;;;;5078936;28;20029;-64
2024/03/09 06:01:16;;;;;;;1.35;1.10;;;20.00;51.00;;;;;;5075349;28;20032;-64
2024/03/09 06:03:42;;;;;;;1.85;1.17;;;20.00;51.00;;;;;;5081036;28;20109;-64
2024/03/09 06:06:09;;;;;;;1.98;1.35;;;20.00;51.10;;;;;;5078828;28;20565;-64
2024/03/09 06:08:35;;;;;;;1.50;1.17;;;20.00;51.10;;;;;;5060041;28;20031;-64
2024/03/09 06:11:02;;;;;;;1.65;1.10;;;20.00;51.10;;;;;;5078117;28;20926;-64
2024/03/09 06:13:30;;;;;;;1.88;1.33;;;20.00;51.10;;;;;;5078644;28;20025;-64
2024/03/09 06:15:55;;;;;;;1.45;1.17;;;19.90;51.10;;;;;;5075345;28;20392;-64
2024/03/09 06:18:23;;;;;;;1.65;1.20;;;20.00;51.10;;;;;;5076147;28;20024;-64
2024/03/09 06:20:49;;;;;;;1.80;1.20;;;19.90;51.10;;;;;;5079721;28;20042;-64
2024/03/09 06:23:14;;;;;;;1.70;1.20;;;19.90;51.10;;;;;;5082200;28;20034;-64
2024/03/09 06:25:41;;;;;;;1.73;1.20;;;20.00;51.20;;;;;;5097039;28;20096;-62
2024/03/09 06:28:08;;;;;;;1.80;1.30;;;19.90;51.10;;;;;;5083133;28;20027;-63
2024/03/09 06:30:36;;;;;;;2.13;1.25;;;19.90;51.20;;;;;;5079146;28;20382;-61
2024/03/09 06:33:02;;;;;;;1.40;1.10;;;19.90;51.20;;;;;;5081365;28;20048;-62
2024/03/09 06:35:27;;;;;;;1.75;1.20;;;19.90;51.20;;;;;;5081155;28;20064;-63
2024/03/09 06:38:01;;;;;;;1.90;1.40;;;19.90;51.20;;;;;;5082665;28;20031;-62
2024/03/09 06:40:31;;;;;;;1.63;1.20;;;19.90;51.20;;;;;;5081981;28;20032;-63
2024/03/09 06:43:08;;;;;;;1.67;1.20;;;19.90;51.20;;;;;;5083543;28;20107;-65
2024/03/09 06:45:36;;;;;;;1.65;1.08;;;19.90;51.30;;;;;;5081742;28;20020;-65
2024/03/09 06:48:03;;;;;;;1.50;1.20;;;19.90;51.30;;;;;;5081348;28;20122;-65
2024/03/09 06:50:31;;;;;;;1.42;1.05;;;19.90;51.30;;;;;;5081646;28;20035;-65
2024/03/09 06:52:58;;;;;;;1.35;1.00;;;19.90;51.30;;;;;;5082061;28;20086;-66
2024/03/09 06:55:29;;;;;;;1.92;1.20;;;19.80;51.30;;;;;;5063849;28;20031;-66
2024/03/09 06:57:56;;;;;;;1.42;1.10;;;19.90;51.30;;;;;;5063065;28;20020;-65
2024/03/09 07:00:25;;;;;;;1.60;1.10;;;19.90;51.40;;;;;;5081279;28;20028;-65
2024/03/09 07:02:52;;;;;;;1.38;0.98;;;19.90;51.40;;;;;;5081645;28;20155;-66
2024/03/09 07:05:18;;;;;;;1.55;1.00;;;19.80;51.30;;;;;;5082689;28;20037;-65
2024/03/09 07:07:44;;;;;;;1.75;1.20;;;19.90;51.40;;;;;;5082620;28;20021;-65
2024/03/09 07:10:10;;;;;;;1.58;1.20;;;19.80;51.40;;;;;;5079972;28;20097;-66
2024/03/09 07:12:40;;;;;;;2.08;1.40;;;19.80;51.40;;;;;;5081396;28;20033;-66
2024/03/09 07:15:11;;;;;;;1.85;1.10;;;19.80;51.40;;;;;;5081255;28;20527;-65
2024/03/09 07:17:37;;;;;;;1.48;1.10;;;19.80;51.40;;;;;;5080032;28;20103;-65
2024/03/09 07:20:11;;;;;;;1.67;1.10;;;19.80;51.40;;;;;;5080407;28;20181;-66
2024/03/09 07:22:39;;;;;;;1.85;1.30;;;19.90;51.50;;;;;;5080940;28;20111;-66
2024/03/09 07:25:07;;;;;;;1.67;1.13;;;19.80;51.90;;;;;;5064578;28;20031;-66
2024/03/09 07:27:33;;;;;;;1.58;1.10;;;19.80;51.40;;;;;;5078060;28;20077;-66
2024/03/09 07:30:01;;;;;;;1.77;1.20;;;19.80;51.90;;;;;;5079119;28;20476;-66
2024/03/09 07:32:27;;;;;;;1.63;1.20;;;19.80;51.40;;;;;;5078723;28;20048;-65
2024/03/09 07:34:53;;;;;;;2.00;1.30;;;19.80;51.40;;;;;;5080732;28;20067;-65
2024/03/09 07:37:18;;;;;;;1.77;1.30;;;19.80;51.40;;;;;;5082784;28;20020;-65
2024/03/09 07:39:44;;;;;;;1.42;1.17;;;19.80;51.50;;;;;;5080934;28;20032;-65
2024/03/09 07:42:09;;;;;;;1.75;1.20;;;19.80;51.40;;;;;;5080980;28;20933;-65
2024/03/09 07:44:35;;;;;;;1.95;1.40;;;19.80;51.40;;;;;;5083193;28;20063;-65
2024/03/09 07:47:01;;;;;;;2.10;1.30;;;19.80;51.50;;;;;;5095532;28;20021;-65
2024/03/09 07:49:27;;;;;;;2.20;1.40;;;19.80;51.40;;;;;;5079715;28;20039;-65
2024/03/09 07:51:52;;;;;;;1.77;1.30;;;19.80;51.40;;;;;;5080324;28;20035;-65
2024/03/09 07:54:19;;;;;;;1.50;1.20;;;19.80;51.50;;;;;;5063591;28;20391;-65
2024/03/09 07:56:45;;;;;;;1.75;1.35;;;19.80;51.50;;;;;;5078867;28;20027;-65
2024/03/09 07:59:11;;;;;;;2.05;1.40;;;19.80;51.50;;;;;;5062034;28;20028;-65
2024/03/09 08:01:38;;;;;;;2.22;1.35;;;19.80;51.50;;;;;;5076945;28;20499;-65
2024/03/09 08:04:04;;;;;;;1.70;1.25;;;19.80;51.50;;;;;;5079242;28;20032;-63
2024/03/09 08:06:30;;;;;;;1.92;1.30;;;19.80;51.40;;;;;;5079269;28;20060;-62
2024/03/09 08:08:56;;;;;;;1.98;1.23;;;19.80;51.50;;;;;;5080464;28;20052;-63
2024/03/09 08:11:23;;;;;;;1.98;1.33;;;19.80;51.50;;;;;;5081940;28;20110;-62
2024/03/09 08:13:49;;;;;;;1.77;1.25;;;19.80;51.40;;;;;;5080680;28;20460;-62
2024/03/09 08:16:15;;;;;;;1.90;1.30;;;19.80;51.40;;;;;;5079885;28;20033;-62
2024/03/09 08:18:40;;;;;;;2.78;1.40;;;19.80;51.40;;;;;;5078655;28;20496;-62
2024/03/09 08:21:07;;;;;;;2.83;1.70;;;19.80;51.50;;;;;;5080735;28;20101;-63
2024/03/09 08:23:33;;;;;;;2.30;1.50;;;19.80;51.60;;;;;;5077578;28;20519;-62
2024/03/09 08:26:06;;;;;;;2.38;1.48;;;19.90;51.60;;;;;;5095737;28;20037;-62
2024/03/09 08:28:32;;;;;;;2.42;1.60;;;19.90;51.60;;;;;;5077149;28;20052;-63
2024/03/09 08:30:59;;;;;;;1.95;1.50;;;19.90;51.60;;;;;;5079392;28;20021;-62
2024/03/09 08:33:25;;;;;;;2.00;1.40;;;20.00;51.50;;;;;;5078675;28;20075;-63
2024/03/09 08:35:55;;;;;;;2.95;1.40;;;20.00;51.50;;;;;;5078597;28;20025;-62
2024/03/09 08:38:21;;;;;;;2.05;1.48;;;20.00;51.30;;;;;;5080479;28;20050;-63
2024/03/09 08:40:49;;;;;;;2.20;1.50;;;20.10;51.30;;;;;;5080131;28;20539;-64
2024/03/09 08:43:15;;;;;;;2.35;1.77;;;20.10;51.20;;;;;;5080132;28;20384;-63
2024/03/09 08:45:42;;;;;;;2.55;1.60;;;20.10;51.10;;;;;;5078993;28;20032;-63
2024/03/09 08:48:11;;;;;;;2.70;1.60;;;20.20;51.10;;;;;;5079702;28;20469;-63
2024/03/09 08:50:38;;;;;;;2.65;1.70;;;20.20;51.00;;;;;;5080521;28;20491;-63
2024/03/09 08:53:03;;;;;;;2.33;1.70;;;20.20;50.80;;;;;;5079159;28;20472;-62
2024/03/09 08:55:29;;;;;;;2.80;1.65;;;20.30;50.70;;;;;;5080677;28;20024;-63
2024/03/09 08:57:55;;;;;;;2.08;1.50;;;20.30;50.70;;;;;;5079486;28;20039;-63
2024/03/09 09:00:24;;;;;;;1.98;1.60;;;20.30;50.60;;;;;;5062342;28;20028;-63
2024/03/09 09:02:51;;;;;;;2.17;1.48;;;20.30;50.50;;;;;;5078778;28;20433;-62
2024/03/09 09:05:18;;;;;;;2.28;1.60;;;20.40;50.50;;;;;;5061871;28;20059;-63
2024/03/09 09:07:47;;;;;;;2.20;1.50;;;20.40;50.40;;;;;;5081543;28;20168;-63
2024/03/09 09:10:14;;;;;;;2.55;1.60;;;20.40;50.40;;;;;;5080528;28;20024;-63
2024/03/09 09:12:44;;;;;;;2.55;1.77;;;20.50;50.30;;;;;;5081411;28;20078;-64
2024/03/09 09:15:16;;;;;;;2.97;1.70;;;20.50;50.20;;;;;;5079361;28;20103;-63
2024/03/09 09:17:42;;;;;;;3.22;1.60;;;20.50;50.30;;;;;;5077812;28;20480;-64
2024/03/09 09:20:12;;;;;;;2.20;1.60;;;20.60;50.30;;;;;;5079176;28;20060;-62
2024/03/09 09:22:39;;;;;;;1.95;1.40;;;20.60;50.20;;;;;;5079496;28;20353;-63
2024/03/09 09:25:06;;;;;;;2.38;1.63;;;20.60;50.20;;;;;;5079493;28;20040;-63
2024/03/09 09:27:34;;;;;;;2.42;1.50;;;20.60;50.20;;;;;;5079448;28;20019;-63
2024/03/09 09:30:01;;;;;;;2.20;1.52;;;20.70;50.20;;;;;;5075139;28;20028;-63
2024/03/09 09:32:26;;;;;;;2.03;1.50;;;20.70;50.20;;;;;;5077069;28;20089;-63
2024/03/09 09:34:52;;;;;;;1.90;1.40;;;20.70;50.20;;;;;;5077998;28;20107;-64
2024/03/09 09:37:18;;;;;;;1.60;1.23;;;20.70;50.10;;;;;;5080141;28;20449;-64
2024/03/09 09:39:44;;;;;;;1.92;1.40;;;20.80;50.20;;;;;;5081425;28;20024;-62
2024/03/09 09:42:10;;;;;;;1.73;1.40;;;20.80;50.20;;;;;;5078441;28;20032;-63
2024/03/09 09:44:36;;;;;;;2.15;1.60;;;20.80;50.20;;;;;;5076927;28;20536;-65
2024/03/09 09:47:02;;;;;;;2.20;1.58;;;20.90;50.20;;;;;;5074917;28;20039;-63
2024/03/09 09:49:29;;;;;;;2.42;1.67;;;20.90;50.10;;;;;;5079375;28;20119;-63
2024/03/09 09:51:56;;;;;;;2.22;1.60;;;20.90;50.10;;;;;;5078721;28;20357;-63
2024/03/09 09:54:25;;;;;;;1.98;1.48;;;21.00;50.10;;;;;;5080400;28;20028;-63
2024/03/09 09:56:55;;;;;;;1.90;1.40;;;20.90;50.00;;;;;;5077838;28;20032;-63
2024/03/09 09:59:21;;;;;;;;;;;21.00;50.00;;;;;;5078447;28;20609;-63
2024/03/09 10:01:46;;;;;;;2.00;1.30;;;21.00;50.00;;;;;;5077570;28;19908;-66
2024/03/09 10:04:12;;;;;;;2.33;1.70;;;21.00;50.00;;;;;;5077686;28;20505;-63
2024/03/09 10:06:38;;;;;;;2.15;1.60;;;21.00;49.90;;;;;;5077566;28;20048;-63
2024/03/09 10:09:03;;;;;;;1.80;1.40;;;21.00;50.40;;;;;;5078877;28;20111;-63
2024/03/09 10:11:31;;;;;;;2.20;1.60;;;21.10;49.90;;;;;;5078316;28;20032;-63
2024/03/09 10:14:01;;;;;;;2.20;1.30;;;21.10;49.90;;;;;;5079309;28;20070;-62
2024/03/09 10:16:31;;;;;;;2.15;1.48;;;21.10;49.90;;;;;;5075867;28;20021;-64
2024/03/09 10:18:59;;;;;;;1.95;1.40;;;21.10;49.90;;;;;;5077081;28;20484;-62
2024/03/09 10:21:38;;;;;;;2.20;1.50;;;21.10;49.90;;;;;;5077436;28;20029;-62
2024/03/09 10:24:08;;;;;;;1.80;1.30;;;21.20;49.90;;;;;;5076785;28;20356;-66
2024/03/09 10:26:35;;;;;;;2.15;1.50;;;21.20;49.90;;;;;;5061235;28;20032;-66
2024/03/09 10:29:02;;;;;;;2.95;1.83;;;21.20;49.90;;;;;;5079919;28;20557;-66
2024/03/09 10:31:29;;;;;;;1.98;1.40;;;21.20;49.80;;;;;;5057532;28;20118;-66
2024/03/09 10:33:55;;;;;;;2.00;1.48;;;21.30;49.90;;;;;;5078189;28;20404;-66
2024/03/09 10:36:25;;;;;;;2.63;1.40;;;21.30;50.30;;;;;;5079356;28;20468;-67
2024/03/09 10:38:55;;;;;;;2.05;1.48;;;21.30;49.80;;;;;;5094972;28;20047;-66
2024/03/09 10:41:25;;;;;;;1.92;1.38;;;21.30;49.70;;;;;;5075584;28;20027;-66
2024/03/09 10:43:53;;;;;;;2.70;1.50;;;21.30;49.70;;;;;;5077800;28;20042;-66
2024/03/09 10:46:28;;;;;;;1.88;1.40;;;21.40;49.70;;;;;;5079792;28;20024;-66
2024/03/09 10:48:58;;;;;;;1.80;1.30;;;21.40;49.70;;;;;;5075924;28;20122;-66
2024/03/09 10:51:37;;;;;;;1.70;1.20;;;21.40;49.70;;;;;;5076982;28;20492;-66
2024/03/09 10:54:24;;;;;;;2.85;1.23;;;21.40;49.60;;;;;;5060032;28;20198;-66
2024/03/09 10:56:53;;;;;;;1.70;1.38;;;21.40;49.60;;;;;;5077802;28;20016;-65
2024/03/09 10:59:22;;;;;;;2.45;1.35;;;21.40;49.60;;;;;;5077920;28;20020;-66
2024/03/09 11:01:50;;;;;;;2.05;1.50;;;21.50;49.60;;;;;;5078674;28;20119;-66
2024/03/09 11:04:17;;;;;;;1.88;1.27;;;21.50;49.60;;;;;;5077207;28;20501;-67
2024/03/09 11:06:45;;;;;;;1.95;1.30;;;21.50;49.60;;;;;;5079024;28;20027;-66
2024/03/09 11:09:13;;;;;;;1.63;1.23;;;21.50;49.50;;;;;;5079641;28;20086;-66
2024/03/09 11:11:40;;;;;;;1.60;1.30;;;21.50;49.50;;;;;;5082778;28;20100;-67
2024/03/09 11:14:06;;;;;;;2.10;1.40;;;21.60;49.50;;;;;;5082343;28;20122;-66
2024/03/09 11:16:32;;;;;;;1.88;1.48;;;21.60;49.50;;;;;;5081845;28;20748;-66
2024/03/09 11:18:59;;;;;;;1.88;1.25;;;21.60;49.40;;;;;;5079576;28;20050;-66
2024/03/09 11:21:29;;;;;;;1.92;1.40;;;21.60;49.40;;;;;;5081023;28;20454;-66
2024/03/09 11:23:59;;;;;;;2.00;1.50;;;21.60;49.40;;;;;;5072300;28;20157;-66
2024/03/09 11:26:26;;;;;;;1.90;1.38;;;21.70;49.40;;;;;;5081221;28;20024;-65
2024/03/09 11:28:58;;;;;;;2.17;1.58;;;21.70;49.40;;;;;;5061884;28;20522;-65
2024/03/09 11:31:30;;;;;;;2.20;1.70;;;21.70;49.30;;;;;;5081123;28;21013;-65
2024/03/09 11:34:23;;;;;;;2.30;1.50;;;21.70;49.30;;;;;;5078845;28;20492;-64
2024/03/09 11:36:51;;;;;;;2.05;1.58;;;21.70;49.20;;;;;;5081306;28;20027;-64
2024/03/09 11:39:36;;;;;;;2.20;1.50;;;21.80;49.30;;;;;;5065495;28;20032;-63
2024/03/09 11:42:12;;;;;;;1.92;1.60;;;21.80;49.20;;;;;;5081336;28;20825;-64
2024/03/09 11:44:39;;;;;;;2.10;1.50;;;21.80;49.20;;;;;;5079034;28;20966;-64
2024/03/09 11:47:07;;;;;;;2.38;1.60;;;21.80;49.20;;;;;;5081689;28;20031;-64
2024/03/09 11:49:35;;;;;;;2.40;1.80;;;21.80;49.20;;;;;;5080124;28;20391;-64
2024/03/09 11:52:10;;;;;;;2.00;1.48;;;21.80;49.20;;;;;;5079468;28;20110;-64
2024/03/09 11:54:36;;;;;;;2.20;1.50;;;21.80;49.10;;;;;;5081233;28;20034;-63
2024/03/09 11:57:02;;;;;;;2.30;1.58;;;21.90;49.10;;;;;;5081425;28;20039;-65
2024/03/09 11:59:28;;;;;;;1.85;1.40;;;21.90;49.10;;;;;;5080898;28;20028;-64
2024/03/09 12:02:02;;;;;;;2.25;1.50;;;21.90;49.00;;;;;;5079545;28;20539;-64
2024/03/09 12:04:29;;;;;;;2.60;1.80;;;21.90;49.00;;;;;;5078673;28;20055;-65
2024/03/09 12:06:55;;;;;;;2.42;1.70;;;21.90;48.90;;;;;;5079777;28;20036;-65
2024/03/09 12:09:21;;;;;;;2.20;1.60;;;22.00;48.80;;;;;;5080060;28;20025;-64
2024/03/09 12:11:47;;;;;;;2.40;1.70;;;22.00;48.70;;;;;;5080447;28;20399;-64
2024/03/09 12:14:12;;;;;;;2.92;1.80;;;22.00;48.70;;;;;;5081751;28;20027;-66
2024/03/09 12:16:40;;;;;;;2.70;1.85;;;22.00;48.50;;;;;;5081423;28;20023;-66
2024/03/09 12:19:06;;;;;;;3.38;1.90;;;22.10;48.60;;;;;;5078404;28;20369;-66
2024/03/09 12:21:37;;;;;;;2.97;1.98;;;22.00;49.00;;;;;;5062465;28;20020;-66
2024/03/09 12:24:03;;;;;;;2.80;2.00;;;22.00;48.50;;;;;;5077991;28;20067;-65
2024/03/09 12:26:29;;;;;;;2.30;1.60;;;22.10;48.50;;;;;;5080652;28;20032;-65
2024/03/09 12:29:03;;;;;;;2.45;1.55;;;22.00;48.50;;;;;;5077346;28;20594;-66
2024/03/09 12:31:29;;;;;;;2.03;1.52;;;22.10;48.50;;;;;;5078168;28;20030;-66
2024/03/09 12:33:55;;;;;;;2.13;1.60;;;22.00;48.30;;;;;;5077120;28;20029;-65
2024/03/09 12:36:23;;;;;;;2.10;1.75;;;22.00;48.20;;;;;;5062351;28;20020;-64
2024/03/09 12:38:49;;;;;;;2.65;1.95;;;22.00;48.20;;;;;;5078884;28;20107;-64
2024/03/09 12:41:28;;;;;;;2.88;1.80;;;22.00;48.10;;;;;;5079287;28;20457;-64
2024/03/09 12:43:55;;;;;;;2.40;1.80;;;22.00;48.00;;;;;;5080267;28;20115;-65
2024/03/09 12:46:27;;;;;;;2.53;2.10;;;22.00;48.00;;;;;;5078782;28;20452;-65
2024/03/09 12:48:57;;;;;;;2.40;1.90;;;22.00;48.00;;;;;;5076548;28;20037;-65